< < Back
Terminal Aerodrome Forecast


Current Version              Previous Versions:   1  2  3  4  5  6  7  8  9  

Terminal Aerodrome Forecast

587
FTUS42 KFFC 261132
TAFMCN
TAF
KMCN 261132Z 2612/2712 14004KT P6SM SKC
     FM261500 22005KT P6SM SCT050 SCT250
     FM270100 17004KT P6SM SCT250=

Latest METAR

255
SAUS80 KWBC 270200 RRA
MTRMCN
METAR KMCN 270153Z AUTO 10006KT 10SM SCT060 25/17 A3008 RMK AO2 SLP182
T02500172 TSNO


USA.gov is the U.S. government's official web portal to all federal, state and local government web resources and services.